sensor_id;sensor_type;location;lat;lon;timestamp;P1;durP1;ratioP1;P2;durP2;ratioP2
12451;SDS011;72521;48.924;12.204;2024-03-08T00:01:54;26.30;;;14.70;;
12451;SDS011;72521;48.924;12.204;2024-03-08T00:07:00;24.97;;;14.20;;
12451;SDS011;72521;48.924;12.204;2024-03-08T00:12:04;26.13;;;13.17;;
12451;SDS011;72521;48.924;12.204;2024-03-08T00:17:08;25.90;;;15.07;;
12451;SDS011;72521;48.924;12.204;2024-03-08T00:22:14;24.63;;;14.60;;
12451;SDS011;72521;48.924;12.204;2024-03-08T00:27:18;25.93;;;14.67;;
12451;SDS011;72521;48.924;12.204;2024-03-08T00:32:23;25.97;;;15.30;;
12451;SDS011;72521;48.924;12.204;2024-03-08T00:37:29;24.37;;;15.00;;
12451;SDS011;72521;48.924;12.204;2024-03-08T00:42:32;26.53;;;14.17;;
12451;SDS011;72521;48.924;12.204;2024-03-08T00:47:36;26.17;;;14.60;;
12451;SDS011;72521;48.924;12.204;2024-03-08T00:52:42;23.60;;;13.87;;
12451;SDS011;72521;48.924;12.204;2024-03-08T00:57:46;24.53;;;14.27;;
12451;SDS011;72521;48.924;12.204;2024-03-08T01:02:50;23.67;;;14.03;;
12451;SDS011;72521;48.924;12.204;2024-03-08T01:07:56;24.53;;;14.47;;
12451;SDS011;72521;48.924;12.204;2024-03-08T01:13:00;22.57;;;13.47;;
12451;SDS011;72521;48.924;12.204;2024-03-08T01:18:04;22.97;;;14.23;;
12451;SDS011;72521;48.924;12.204;2024-03-08T01:23:10;23.80;;;13.07;;
12451;SDS011;72521;48.924;12.204;2024-03-08T01:28:15;23.03;;;13.40;;
12451;SDS011;72521;48.924;12.204;2024-03-08T01:33:19;22.50;;;13.47;;
12451;SDS011;72521;48.924;12.204;2024-03-08T01:38:25;25.13;;;12.97;;
12451;SDS011;72521;48.924;12.204;2024-03-08T01:43:29;24.93;;;14.63;;
12451;SDS011;72521;48.924;12.204;2024-03-08T01:48:33;26.50;;;14.47;;
12451;SDS011;72521;48.924;12.204;2024-03-08T01:53:39;23.27;;;13.07;;
12451;SDS011;72521;48.924;12.204;2024-03-08T01:58:48;24.37;;;13.20;;
12451;SDS011;72521;48.924;12.204;2024-03-08T02:03:52;25.00;;;14.10;;
12451;SDS011;72521;48.924;12.204;2024-03-08T02:08:58;28.20;;;14.63;;
12451;SDS011;72521;48.924;12.204;2024-03-08T02:14:02;23.47;;;13.77;;
12451;SDS011;72521;48.924;12.204;2024-03-08T02:19:08;19.97;;;12.00;;
12451;SDS011;72521;48.924;12.204;2024-03-08T02:24:13;24.23;;;13.83;;
12451;SDS011;72521;48.924;12.204;2024-03-08T02:29:18;23.17;;;13.67;;
12451;SDS011;72521;48.924;12.204;2024-03-08T02:34:22;24.23;;;13.50;;
12451;SDS011;72521;48.924;12.204;2024-03-08T02:39:28;24.63;;;13.70;;
12451;SDS011;72521;48.924;12.204;2024-03-08T02:44:34;22.97;;;13.17;;
12451;SDS011;72521;48.924;12.204;2024-03-08T02:49:38;28.33;;;14.60;;
12451;SDS011;72521;48.924;12.204;2024-03-08T02:54:43;24.77;;;13.40;;
12451;SDS011;72521;48.924;12.204;2024-03-08T02:59:48;24.20;;;13.47;;
12451;SDS011;72521;48.924;12.204;2024-03-08T03:04:53;26.53;;;13.80;;
12451;SDS011;72521;48.924;12.204;2024-03-08T03:09:59;25.17;;;14.37;;
12451;SDS011;72521;48.924;12.204;2024-03-08T03:15:03;24.93;;;14.57;;
12451;SDS011;72521;48.924;12.204;2024-03-08T03:20:09;22.40;;;13.33;;
12451;SDS011;72521;48.924;12.204;2024-03-08T03:25:17;24.47;;;13.83;;
12451;SDS011;72521;48.924;12.204;2024-03-08T03:30:26;23.87;;;13.07;;
12451;SDS011;72521;48.924;12.204;2024-03-08T03:35:35;27.57;;;14.87;;
12451;SDS011;72521;48.924;12.204;2024-03-08T03:40:41;24.13;;;13.77;;
12451;SDS011;72521;48.924;12.204;2024-03-08T03:45:47;24.97;;;12.60;;
12451;SDS011;72521;48.924;12.204;2024-03-08T03:50:50;23.70;;;13.80;;
12451;SDS011;72521;48.924;12.204;2024-03-08T03:55:56;26.03;;;13.63;;
12451;SDS011;72521;48.924;12.204;2024-03-08T04:01:01;23.60;;;13.77;;
12451;SDS011;72521;48.924;12.204;2024-03-08T04:06:07;24.37;;;13.13;;
12451;SDS011;72521;48.924;12.204;2024-03-08T04:11:12;25.97;;;14.60;;
12451;SDS011;72521;48.924;12.204;2024-03-08T04:16:18;29.20;;;16.80;;
12451;SDS011;72521;48.924;12.204;2024-03-08T04:21:22;31.13;;;15.23;;
12451;SDS011;72521;48.924;12.204;2024-03-08T04:26:27;29.73;;;16.40;;
12451;SDS011;72521;48.924;12.204;2024-03-08T04:31:32;28.60;;;15.37;;
12451;SDS011;72521;48.924;12.204;2024-03-08T04:36:36;26.77;;;14.87;;
12451;SDS011;72521;48.924;12.204;2024-03-08T04:41:41;23.40;;;14.33;;
12451;SDS011;72521;48.924;12.204;2024-03-08T04:46:46;28.53;;;15.03;;
12451;SDS011;72521;48.924;12.204;2024-03-08T04:51:50;27.77;;;15.60;;
12451;SDS011;72521;48.924;12.204;2024-03-08T04:56:55;30.93;;;14.77;;
12451;SDS011;72521;48.924;12.204;2024-03-08T05:01:59;27.50;;;14.83;;
12451;SDS011;72521;48.924;12.204;2024-03-08T05:07:03;29.83;;;15.23;;
12451;SDS011;72521;48.924;12.204;2024-03-08T05:12:09;25.50;;;14.40;;
12451;SDS011;72521;48.924;12.204;2024-03-08T05:17:13;32.67;;;18.03;;
12451;SDS011;72521;48.924;12.204;2024-03-08T05:22:17;28.63;;;16.67;;
12451;SDS011;72521;48.924;12.204;2024-03-08T05:27:23;27.30;;;14.73;;
12451;SDS011;72521;48.924;12.204;2024-03-08T05:32:27;30.90;;;16.07;;
12451;SDS011;72521;48.924;12.204;2024-03-08T05:37:32;28.93;;;14.87;;
12451;SDS011;72521;48.924;12.204;2024-03-08T05:42:37;31.43;;;15.30;;
12451;SDS011;72521;48.924;12.204;2024-03-08T05:47:42;27.07;;;15.57;;
12451;SDS011;72521;48.924;12.204;2024-03-08T05:52:46;26.03;;;14.03;;
12451;SDS011;72521;48.924;12.204;2024-03-08T05:57:53;27.57;;;14.73;;
12451;SDS011;72521;48.924;12.204;2024-03-08T06:02:58;27.97;;;15.30;;
12451;SDS011;72521;48.924;12.204;2024-03-08T06:08:02;32.23;;;16.70;;
12451;SDS011;72521;48.924;12.204;2024-03-08T06:13:10;30.10;;;15.67;;
12451;SDS011;72521;48.924;12.204;2024-03-08T06:18:14;32.47;;;19.70;;
12451;SDS011;72521;48.924;12.204;2024-03-08T06:23:19;31.47;;;19.67;;
12451;SDS011;72521;48.924;12.204;2024-03-08T06:28:24;40.13;;;23.43;;
12451;SDS011;72521;48.924;12.204;2024-03-08T06:33:29;32.77;;;19.43;;
12451;SDS011;72521;48.924;12.204;2024-03-08T06:38:34;24.50;;;15.80;;
12451;SDS011;72521;48.924;12.204;2024-03-08T06:43:45;19.70;;;13.33;;
12451;SDS011;72521;48.924;12.204;2024-03-08T06:48:53;21.53;;;13.90;;
12451;SDS011;72521;48.924;12.204;2024-03-08T06:53:57;19.50;;;12.97;;
12451;SDS011;72521;48.924;12.204;2024-03-08T06:59:03;18.10;;;12.37;;
12451;SDS011;72521;48.924;12.204;2024-03-08T07:04:08;19.42;;;13.43;;
12451;SDS011;72521;48.924;12.204;2024-03-08T07:09:13;19.67;;;12.65;;
12451;SDS011;72521;48.924;12.204;2024-03-08T07:14:20;18.23;;;11.70;;
12451;SDS011;72521;48.924;12.204;2024-03-08T07:19:24;19.55;;;12.77;;
12451;SDS011;72521;48.924;12.204;2024-03-08T07:24:28;18.55;;;11.32;;
12451;SDS011;72521;48.924;12.204;2024-03-08T07:29:42;16.65;;;10.63;;
12451;SDS011;72521;48.924;12.204;2024-03-08T07:34:47;19.65;;;10.63;;
12451;SDS011;72521;48.924;12.204;2024-03-08T07:39:52;15.80;;;11.48;;
12451;SDS011;72521;48.924;12.204;2024-03-08T07:44:57;15.88;;;10.68;;
12451;SDS011;72521;48.924;12.204;2024-03-08T07:50:01;18.13;;;11.38;;
12451;SDS011;72521;48.924;12.204;2024-03-08T07:55:06;17.95;;;11.55;;
12451;SDS011;72521;48.924;12.204;2024-03-08T08:00:15;18.50;;;11.20;;
12451;SDS011;72521;48.924;12.204;2024-03-08T08:05:20;16.35;;;10.30;;
12451;SDS011;72521;48.924;12.204;2024-03-08T08:10:24;18.95;;;12.10;;
12451;SDS011;72521;48.924;12.204;2024-03-08T08:15:31;20.30;;;13.15;;
12451;SDS011;72521;48.924;12.204;2024-03-08T08:20:36;20.92;;;12.80;;
12451;SDS011;72521;48.924;12.204;2024-03-08T08:25:40;21.42;;;12.52;;
12451;SDS011;72521;48.924;12.204;2024-03-08T08:30:46;21.33;;;12.45;;
12451;SDS011;72521;48.924;12.204;2024-03-08T08:35:50;18.65;;;11.50;;
12451;SDS011;72521;48.924;12.204;2024-03-08T08:40:55;17.83;;;12.43;;
12451;SDS011;72521;48.924;12.204;2024-03-08T08:46:01;19.08;;;13.55;;
12451;SDS011;72521;48.924;12.204;2024-03-08T08:51:06;19.55;;;12.18;;
12451;SDS011;72521;48.924;12.204;2024-03-08T08:56:14;19.02;;;12.50;;
12451;SDS011;72521;48.924;12.204;2024-03-08T09:01:20;17.02;;;11.63;;
12451;SDS011;72521;48.924;12.204;2024-03-08T09:06:24;16.77;;;12.27;;
12451;SDS011;72521;48.924;12.204;2024-03-08T09:11:28;17.33;;;11.00;;
12451;SDS011;72521;48.924;12.204;2024-03-08T09:16:34;15.57;;;11.07;;
12451;SDS011;72521;48.924;12.204;2024-03-08T09:21:38;17.20;;;11.02;;
12451;SDS011;72521;48.924;12.204;2024-03-08T09:26:42;14.40;;;9.77;;
12451;SDS011;72521;48.924;12.204;2024-03-08T09:31:48;14.75;;;10.88;;
12451;SDS011;72521;48.924;12.204;2024-03-08T09:36:52;17.45;;;10.55;;
12451;SDS011;72521;48.924;12.204;2024-03-08T09:41:55;13.73;;;10.00;;
12451;SDS011;72521;48.924;12.204;2024-03-08T09:47:01;13.57;;;8.82;;
12451;SDS011;72521;48.924;12.204;2024-03-08T09:52:05;14.73;;;9.15;;
12451;SDS011;72521;48.924;12.204;2024-03-08T09:57:10;11.98;;;9.15;;
12451;SDS011;72521;48.924;12.204;2024-03-08T10:02:16;11.38;;;8.52;;
12451;SDS011;72521;48.924;12.204;2024-03-08T10:07:20;15.77;;;10.52;;
12451;SDS011;72521;48.924;12.204;2024-03-08T10:12:26;12.68;;;8.93;;
12451;SDS011;72521;48.924;12.204;2024-03-08T10:17:31;13.68;;;9.18;;
12451;SDS011;72521;48.924;12.204;2024-03-08T10:22:37;13.43;;;9.60;;
12451;SDS011;72521;48.924;12.204;2024-03-08T10:27:44;12.45;;;10.02;;
12451;SDS011;72521;48.924;12.204;2024-03-08T10:32:49;10.63;;;8.15;;
12451;SDS011;72521;48.924;12.204;2024-03-08T10:37:53;11.27;;;8.82;;
12451;SDS011;72521;48.924;12.204;2024-03-08T10:43:02;13.23;;;9.55;;
12451;SDS011;72521;48.924;12.204;2024-03-08T10:48:17;12.20;;;8.43;;
12451;SDS011;72521;48.924;12.204;2024-03-08T10:53:38;11.75;;;8.73;;
12451;SDS011;72521;48.924;12.204;2024-03-08T10:58:43;13.40;;;8.45;;
12451;SDS011;72521;48.924;12.204;2024-03-08T11:03:50;12.82;;;9.07;;
12451;SDS011;72521;48.924;12.204;2024-03-08T11:08:55;11.35;;;9.05;;
12451;SDS011;72521;48.924;12.204;2024-03-08T11:14:00;9.85;;;7.75;;
12451;SDS011;72521;48.924;12.204;2024-03-08T11:24:36;9.15;;;7.00;;
12451;SDS011;72521;48.924;12.204;2024-03-08T11:29:59;9.02;;;7.53;;
12451;SDS011;72521;48.924;12.204;2024-03-08T11:35:21;8.48;;;6.40;;
12451;SDS011;72521;48.924;12.204;2024-03-08T11:40:25;7.07;;;6.28;;
12451;SDS011;72521;48.924;12.204;2024-03-08T11:45:30;8.63;;;6.68;;
12451;SDS011;72521;48.924;12.204;2024-03-08T11:50:39;10.10;;;7.40;;
12451;SDS011;72521;48.924;12.204;2024-03-08T11:55:45;9.43;;;6.75;;
12451;SDS011;72521;48.924;12.204;2024-03-08T12:00:50;8.43;;;6.53;;
12451;SDS011;72521;48.924;12.204;2024-03-08T12:06:07;6.57;;;5.78;;
12451;SDS011;72521;48.924;12.204;2024-03-08T12:11:11;7.30;;;5.75;;
12451;SDS011;72521;48.924;12.204;2024-03-08T12:16:16;7.82;;;6.43;;
12451;SDS011;72521;48.924;12.204;2024-03-08T12:21:22;7.38;;;5.30;;
12451;SDS011;72521;48.924;12.204;2024-03-08T12:26:27;6.50;;;5.10;;
12451;SDS011;72521;48.924;12.204;2024-03-08T12:31:31;7.47;;;5.50;;
12451;SDS011;72521;48.924;12.204;2024-03-08T12:36:37;6.15;;;5.55;;
12451;SDS011;72521;48.924;12.204;2024-03-08T12:41:46;6.90;;;5.95;;
12451;SDS011;72521;48.924;12.204;2024-03-08T12:46:51;6.63;;;5.93;;
12451;SDS011;72521;48.924;12.204;2024-03-08T12:51:57;7.07;;;5.10;;
12451;SDS011;72521;48.924;12.204;2024-03-08T12:57:01;7.50;;;6.10;;
12451;SDS011;72521;48.924;12.204;2024-03-08T13:02:06;8.07;;;6.47;;
12451;SDS011;72521;48.924;12.204;2024-03-08T13:07:14;7.15;;;6.18;;
12451;SDS011;72521;48.924;12.204;2024-03-08T13:12:18;8.35;;;6.63;;
12451;SDS011;72521;48.924;12.204;2024-03-08T13:17:22;7.07;;;6.10;;
12451;SDS011;72521;48.924;12.204;2024-03-08T13:22:28;8.32;;;6.10;;
12451;SDS011;72521;48.924;12.204;2024-03-08T13:27:32;7.47;;;6.57;;
12451;SDS011;72521;48.924;12.204;2024-03-08T13:32:38;7.32;;;5.55;;
12451;SDS011;72521;48.924;12.204;2024-03-08T13:37:46;7.35;;;5.80;;
12451;SDS011;72521;48.924;12.204;2024-03-08T13:42:50;6.93;;;5.63;;
12451;SDS011;72521;48.924;12.204;2024-03-08T13:47:55;7.63;;;6.28;;
12451;SDS011;72521;48.924;12.204;2024-03-08T13:53:00;7.28;;;6.18;;
12451;SDS011;72521;48.924;12.204;2024-03-08T13:58:05;8.35;;;6.30;;
12451;SDS011;72521;48.924;12.204;2024-03-08T14:03:11;6.72;;;5.75;;
12451;SDS011;72521;48.924;12.204;2024-03-08T14:08:16;6.43;;;4.68;;
12451;SDS011;72521;48.924;12.204;2024-03-08T14:13:20;6.15;;;5.05;;
12451;SDS011;72521;48.924;12.204;2024-03-08T14:18:25;5.18;;;4.53;;
12451;SDS011;72521;48.924;12.204;2024-03-08T14:23:32;5.22;;;4.72;;
12451;SDS011;72521;48.924;12.204;2024-03-08T14:28:36;7.03;;;4.95;;
12451;SDS011;72521;48.924;12.204;2024-03-08T14:33:40;5.82;;;4.35;;
12451;SDS011;72521;48.924;12.204;2024-03-08T14:38:46;5.93;;;4.75;;
12451;SDS011;72521;48.924;12.204;2024-03-08T14:43:50;7.07;;;5.20;;
12451;SDS011;72521;48.924;12.204;2024-03-08T14:48:55;6.35;;;5.40;;
12451;SDS011;72521;48.924;12.204;2024-03-08T14:54:00;7.32;;;5.35;;
12451;SDS011;72521;48.924;12.204;2024-03-08T14:59:08;4.93;;;4.20;;
12451;SDS011;72521;48.924;12.204;2024-03-08T15:04:12;3.78;;;3.38;;
12451;SDS011;72521;48.924;12.204;2024-03-08T15:09:18;5.00;;;3.40;;
12451;SDS011;72521;48.924;12.204;2024-03-08T15:14:26;4.55;;;3.28;;
12451;SDS011;72521;48.924;12.204;2024-03-08T15:19:31;4.72;;;3.80;;
12451;SDS011;72521;48.924;12.204;2024-03-08T15:24:36;6.90;;;3.00;;
12451;SDS011;72521;48.924;12.204;2024-03-08T15:29:40;4.57;;;3.50;;
12451;SDS011;72521;48.924;12.204;2024-03-08T15:34:49;6.20;;;3.20;;
12451;SDS011;72521;48.924;12.204;2024-03-08T15:39:57;3.92;;;2.97;;
12451;SDS011;72521;48.924;12.204;2024-03-08T15:45:01;4.72;;;3.00;;
12451;SDS011;72521;48.924;12.204;2024-03-08T15:50:05;4.18;;;3.78;;
12451;SDS011;72521;48.924;12.204;2024-03-08T15:55:15;5.05;;;3.15;;
12451;SDS011;72521;48.924;12.204;2024-03-08T16:00:22;4.38;;;3.25;;
12451;SDS011;72521;48.924;12.204;2024-03-08T16:05:35;5.72;;;3.22;;
12451;SDS011;72521;48.924;12.204;2024-03-08T16:10:41;3.17;;;2.78;;
12451;SDS011;72521;48.924;12.204;2024-03-08T16:15:52;5.07;;;3.58;;
12451;SDS011;72521;48.924;12.204;2024-03-08T16:20:57;3.90;;;3.00;;
12451;SDS011;72521;48.924;12.204;2024-03-08T16:26:03;4.10;;;3.20;;
12451;SDS011;72521;48.924;12.204;2024-03-08T16:31:08;4.18;;;3.28;;
12451;SDS011;72521;48.924;12.204;2024-03-08T16:36:16;4.22;;;3.45;;
12451;SDS011;72521;48.924;12.204;2024-03-08T16:41:22;4.80;;;3.72;;
12451;SDS011;72521;48.924;12.204;2024-03-08T16:46:26;6.13;;;3.17;;
12451;SDS011;72521;48.924;12.204;2024-03-08T16:51:37;4.28;;;3.30;;
12451;SDS011;72521;48.924;12.204;2024-03-08T16:56:43;5.40;;;3.88;;
12451;SDS011;72521;48.924;12.204;2024-03-08T17:01:48;5.97;;;3.28;;
12451;SDS011;72521;48.924;12.204;2024-03-08T17:06:53;6.03;;;3.83;;
12451;SDS011;72521;48.924;12.204;2024-03-08T17:12:01;4.35;;;3.35;;
12451;SDS011;72521;48.924;12.204;2024-03-08T17:17:06;5.38;;;3.88;;
12451;SDS011;72521;48.924;12.204;2024-03-08T17:22:15;7.45;;;4.20;;
12451;SDS011;72521;48.924;12.204;2024-03-08T17:27:24;8.18;;;5.82;;
12451;SDS011;72521;48.924;12.204;2024-03-08T17:32:29;13.20;;;8.00;;
12451;SDS011;72521;48.924;12.204;2024-03-08T17:37:35;9.90;;;6.63;;
12451;SDS011;72521;48.924;12.204;2024-03-08T17:42:42;8.07;;;6.35;;
12451;SDS011;72521;48.924;12.204;2024-03-08T17:47:47;9.15;;;6.65;;
12451;SDS011;72521;48.924;12.204;2024-03-08T17:52:52;10.23;;;6.40;;
12451;SDS011;72521;48.924;12.204;2024-03-08T17:57:59;8.52;;;6.22;;
12451;SDS011;72521;48.924;12.204;2024-03-08T18:03:03;9.32;;;6.85;;
12451;SDS011;72521;48.924;12.204;2024-03-08T18:08:10;13.75;;;7.70;;
12451;SDS011;72521;48.924;12.204;2024-03-08T18:13:17;11.27;;;7.90;;
12451;SDS011;72521;48.924;12.204;2024-03-08T18:18:21;10.95;;;7.57;;
12451;SDS011;72521;48.924;12.204;2024-03-08T18:23:25;11.75;;;7.75;;
12451;SDS011;72521;48.924;12.204;2024-03-08T18:28:32;12.00;;;7.82;;
12451;SDS011;72521;48.924;12.204;2024-03-08T18:33:38;13.55;;;8.68;;
12451;SDS011;72521;48.924;12.204;2024-03-08T18:38:46;15.40;;;9.43;;
12451;SDS011;72521;48.924;12.204;2024-03-08T18:43:52;13.38;;;8.02;;
12451;SDS011;72521;48.924;12.204;2024-03-08T18:48:59;14.15;;;9.18;;
12451;SDS011;72521;48.924;12.204;2024-03-08T18:54:03;13.75;;;9.10;;
12451;SDS011;72521;48.924;12.204;2024-03-08T18:59:08;13.13;;;8.30;;
12451;SDS011;72521;48.924;12.204;2024-03-08T19:04:13;12.55;;;8.35;;
12451;SDS011;72521;48.924;12.204;2024-03-08T19:09:18;12.95;;;8.88;;
12451;SDS011;72521;48.924;12.204;2024-03-08T19:14:24;14.20;;;8.68;;
12451;SDS011;72521;48.924;12.204;2024-03-08T19:19:28;13.30;;;9.05;;
12451;SDS011;72521;48.924;12.204;2024-03-08T19:24:36;12.23;;;8.80;;
12451;SDS011;72521;48.924;12.204;2024-03-08T19:29:41;13.55;;;9.05;;
12451;SDS011;72521;48.924;12.204;2024-03-08T19:34:46;13.93;;;8.98;;
12451;SDS011;72521;48.924;12.204;2024-03-08T19:39:51;13.98;;;8.60;;
12451;SDS011;72521;48.924;12.204;2024-03-08T19:44:56;14.55;;;9.05;;
12451;SDS011;72521;48.924;12.204;2024-03-08T19:50:01;11.32;;;8.57;;
12451;SDS011;72521;48.924;12.204;2024-03-08T19:55:09;10.90;;;8.20;;
12451;SDS011;72521;48.924;12.204;2024-03-08T20:00:16;13.95;;;8.48;;
12451;SDS011;72521;48.924;12.204;2024-03-08T20:05:27;12.18;;;8.18;;
12451;SDS011;72521;48.924;12.204;2024-03-08T20:10:33;9.95;;;7.38;;
12451;SDS011;72521;48.924;12.204;2024-03-08T20:15:40;12.23;;;8.15;;
12451;SDS011;72521;48.924;12.204;2024-03-08T20:20:47;12.77;;;7.53;;
12451;SDS011;72521;48.924;12.204;2024-03-08T20:25:55;12.60;;;7.83;;
12451;SDS011;72521;48.924;12.204;2024-03-08T20:31:01;12.20;;;7.38;;
12451;SDS011;72521;48.924;12.204;2024-03-08T20:36:06;12.53;;;7.77;;
12451;SDS011;72521;48.924;12.204;2024-03-08T20:41:12;12.60;;;7.90;;
12451;SDS011;72521;48.924;12.204;2024-03-08T20:46:19;14.32;;;7.93;;
12451;SDS011;72521;48.924;12.204;2024-03-08T20:51:23;12.57;;;7.70;;
12451;SDS011;72521;48.924;12.204;2024-03-08T20:56:27;13.45;;;8.30;;
12451;SDS011;72521;48.924;12.204;2024-03-08T21:01:33;11.87;;;7.57;;
12451;SDS011;72521;48.924;12.204;2024-03-08T21:06:37;14.67;;;8.33;;
12451;SDS011;72521;48.924;12.204;2024-03-08T21:11:45;15.07;;;9.65;;
12451;SDS011;72521;48.924;12.204;2024-03-08T21:16:51;19.37;;;11.63;;
12451;SDS011;72521;48.924;12.204;2024-03-08T21:21:55;20.60;;;11.97;;
12451;SDS011;72521;48.924;12.204;2024-03-08T21:26:59;18.87;;;11.20;;
12451;SDS011;72521;48.924;12.204;2024-03-08T21:32:05;12.47;;;7.80;;
12451;SDS011;72521;48.924;12.204;2024-03-08T21:37:09;16.73;;;9.20;;
12451;SDS011;72521;48.924;12.204;2024-03-08T21:42:14;15.43;;;8.90;;
12451;SDS011;72521;48.924;12.204;2024-03-08T21:47:19;17.97;;;9.47;;
12451;SDS011;72521;48.924;12.204;2024-03-08T21:52:24;17.43;;;9.63;;
12451;SDS011;72521;48.924;12.204;2024-03-08T21:57:28;18.37;;;10.73;;
12451;SDS011;72521;48.924;12.204;2024-03-08T22:02:34;19.02;;;11.13;;
12451;SDS011;72521;48.924;12.204;2024-03-08T22:07:38;17.27;;;9.67;;
12451;SDS011;72521;48.924;12.204;2024-03-08T22:12:43;16.93;;;9.60;;
12451;SDS011;72521;48.924;12.204;2024-03-08T22:17:49;15.40;;;9.17;;
12451;SDS011;72521;48.924;12.204;2024-03-08T22:22:58;16.93;;;9.93;;
12451;SDS011;72521;48.924;12.204;2024-03-08T22:28:04;14.90;;;8.43;;
12451;SDS011;72521;48.924;12.204;2024-03-08T22:33:10;14.13;;;8.30;;
12451;SDS011;72521;48.924;12.204;2024-03-08T22:38:14;14.50;;;8.50;;
12451;SDS011;72521;48.924;12.204;2024-03-08T22:43:19;13.33;;;8.47;;
12451;SDS011;72521;48.924;12.204;2024-03-08T22:48:25;12.93;;;7.53;;
12451;SDS011;72521;48.924;12.204;2024-03-08T22:53:29;14.00;;;8.40;;
12451;SDS011;72521;48.924;12.204;2024-03-08T22:58:33;13.50;;;7.73;;
12451;SDS011;72521;48.924;12.204;2024-03-08T23:03:40;12.17;;;7.47;;
12451;SDS011;72521;48.924;12.204;2024-03-08T23:08:45;12.97;;;7.70;;
12451;SDS011;72521;48.924;12.204;2024-03-08T23:13:49;12.33;;;7.33;;
12451;SDS011;72521;48.924;12.204;2024-03-08T23:18:54;11.77;;;7.93;;
12451;SDS011;72521;48.924;12.204;2024-03-08T23:23:59;14.10;;;8.47;;
12451;SDS011;72521;48.924;12.204;2024-03-08T23:29:03;14.50;;;8.87;;
12451;SDS011;72521;48.924;12.204;2024-03-08T23:34:09;14.57;;;8.77;;
12451;SDS011;72521;48.924;12.204;2024-03-08T23:39:15;14.43;;;8.83;;
12451;SDS011;72521;48.924;12.204;2024-03-08T23:44:23;14.47;;;9.43;;
12451;SDS011;72521;48.924;12.204;2024-03-08T23:49:29;14.90;;;9.33;;
12451;SDS011;72521;48.924;12.204;2024-03-08T23:54:33;12.47;;;8.33;;
12451;SDS011;72521;48.924;12.204;2024-03-08T23:59:42;14.47;;;8.70;;
